Time;durP1;ratioP1;P1;durP2;ratioP2;P2;SDS_P1;SDS_P2;PMS_P1;PMS_P2;Temp;Humidity;BMP_temperature;BMP_pressure;BME280_temperature;BME280_humidity;BME280_pressure;Samples;Min_cycle;Max_cycle;Signal;HPM_P1;HPM_P2
2022/01/26 00:07:06;;;;;;;98.40;51.43;;;4.30;99.90;;;;;;5077839;27;38666;-75
2022/01/26 00:09:32;;;;;;;100.67;52.20;;;4.30;99.90;;;;;;5060226;28;38711;-75
2022/01/26 00:11:58;;;;;;;101.37;51.60;;;4.30;99.90;;;;;;5069172;27;37284;-74
2022/01/26 00:14:25;;;;;;;105.77;52.70;;;4.30;99.90;;;;;;5080343;28;37007;-75
2022/01/26 00:16:51;;;;;;;100.83;51.00;;;4.20;99.90;;;;;;5051784;28;36397;-77
2022/01/26 00:19:31;;;;;;;104.03;55.03;;;4.20;99.90;;;;;;5060203;28;41174;-76
2022/01/26 00:21:58;;;;;;;111.80;55.63;;;4.20;99.90;;;;;;5058449;28;37186;-75
2022/01/26 00:27:09;;;;;;;115.30;57.33;;;4.20;99.90;;;;;;5076974;27;37800;-75
2022/01/26 00:29:38;;;;;;;115.50;55.93;;;4.20;99.90;;;;;;5056640;28;38723;-76
2022/01/26 00:40:51;;;;;;;116.63;56.43;;;4.20;99.90;;;;;;5037138;28;39569;-75
2022/01/26 00:43:24;;;;;;;110.20;52.33;;;4.20;99.90;;;;;;5039117;28;39228;-76
2022/01/26 00:45:56;;;;;;;106.47;52.97;;;4.20;99.90;;;;;;5039633;28;38906;-76
2022/01/26 00:48:23;;;;;;;108.40;52.87;;;4.20;99.90;;;;;;5034340;28;37376;-75
2022/01/26 00:50:51;;;;;;;113.90;55.57;;;4.20;99.90;;;;;;5034664;28;39431;-77
2022/01/26 00:53:21;;;;;;;114.40;55.30;;;4.20;99.90;;;;;;5041953;28;39903;-75
2022/01/26 00:55:47;;;;;;;119.63;56.13;;;4.20;99.90;;;;;;5036523;28;38627;-75
2022/01/26 00:58:13;;;;;;;114.60;56.10;;;4.20;99.90;;;;;;5033479;28;37528;-75
2022/01/26 01:00:39;;;;;;;111.93;55.10;;;4.20;99.90;;;;;;5035802;28;40667;-75
2022/01/26 01:03:06;;;;;;;110.67;55.10;;;4.20;99.90;;;;;;5032466;28;38551;-75
2022/01/26 01:05:41;;;;;;;111.27;53.60;;;4.20;99.90;;;;;;5039668;28;37735;-77
2022/01/26 01:08:13;;;;;;;118.27;54.37;;;4.20;99.90;;;;;;5039111;28;37122;-75
2022/01/26 01:10:40;;;;;;;111.05;55.17;;;4.20;99.90;;;;;;5031162;28;39501;-76
2022/01/26 01:13:14;;;;;;;116.63;57.30;;;4.20;99.90;;;;;;5039477;28;36698;-75
2022/01/26 01:15:40;;;;;;;106.43;52.00;;;4.20;99.90;;;;;;5035418;28;39165;-75
2022/01/26 01:18:20;;;;;;;113.23;55.30;;;4.20;99.90;;;;;;5052345;28;37985;-74
2022/01/26 01:21:07;;;;;;;115.17;54.37;;;4.20;99.90;;;;;;5035220;28;39308;-75
2022/01/26 01:30:59;;;;;;;122.50;56.13;;;4.10;99.90;;;;;;5034357;28;39094;-75
2022/01/26 01:33:38;;;;;;;114.97;54.33;;;4.10;99.90;;;;;;5033914;28;38486;-75
2022/01/26 01:36:06;;;;;;;122.10;56.63;;;4.10;99.90;;;;;;5034000;28;37399;-75
2022/01/26 01:38:34;;;;;;;122.47;57.17;;;4.00;99.90;;;;;;5036540;28;37805;-76
2022/01/26 01:41:00;;;;;;;117.80;55.20;;;4.00;99.90;;;;;;5034300;28;38383;-75
2022/01/26 01:43:27;;;;;;;119.33;55.50;;;4.10;99.90;;;;;;5033335;28;38193;-75
2022/01/26 01:45:55;;;;;;;124.23;57.53;;;4.10;99.90;;;;;;5026878;28;39253;-75
2022/01/26 01:48:26;;;;;;;123.43;57.83;;;4.10;99.90;;;;;;5036051;28;36313;-75
2022/01/26 01:50:55;;;;;;;123.23;55.73;;;4.10;99.90;;;;;;5029618;28;38359;-75
2022/01/26 01:53:31;;;;;;;121.93;58.07;;;4.00;99.90;;;;;;5034497;28;39754;-77
2022/01/26 01:55:59;;;;;;;117.20;54.70;;;4.00;99.90;;;;;;5033495;28;37670;-75
2022/01/26 01:58:25;;;;;;;120.83;55.47;;;4.00;99.90;;;;;;5032024;28;37401;-75
2022/01/26 02:00:52;;;;;;;124.13;57.23;;;4.00;99.90;;;;;;5031632;28;40131;-75
2022/01/26 02:03:18;;;;;;;128.07;59.97;;;3.90;99.90;;;;;;5023345;28;39675;-76
2022/01/26 02:05:44;;;;;;;127.83;57.60;;;3.90;99.90;;;;;;5037228;28;37842;-76
2022/01/26 02:08:10;;;;;;;122.10;57.27;;;4.00;99.90;;;;;;5041555;28;37297;-75
2022/01/26 02:10:37;;;;;;;120.67;54.37;;;4.00;99.90;;;;;;5032609;28;39014;-75
2022/01/26 02:13:13;;;;;;;127.67;57.30;;;4.00;99.90;;;;;;5030829;28;36909;-75
2022/01/26 02:15:48;;;;;;;121.77;57.07;;;3.90;99.90;;;;;;5034054;28;38999;-77
2022/01/26 02:21:17;;;;;;;125.27;58.10;;;4.00;99.90;;;;;;5006737;28;39171;-75
2022/01/26 02:57:16;;;;;;;124.77;56.63;;;4.00;99.90;;;;;;5025734;28;39067;-75
2022/01/26 03:00:16;;;;;;;130.83;57.07;;;4.00;99.90;;;;;;5033337;28;48319;-75
2022/01/26 03:02:54;;;;;;;129.37;58.63;;;3.90;99.90;;;;;;5042073;28;47755;-76
2022/01/26 03:05:25;;;;;;;133.10;59.87;;;4.00;99.90;;;;;;5028047;28;38197;-76
2022/01/26 03:08:00;;;;;;;133.53;58.17;;;3.90;99.90;;;;;;5029209;28;39589;-77
2022/01/26 03:10:45;;;;;;;131.80;58.17;;;3.90;99.90;;;;;;5026801;28;37221;-76
2022/01/26 03:13:17;;;;;;;142.30;61.53;;;3.90;99.90;;;;;;5033181;28;37493;-75
2022/01/26 03:15:49;;;;;;;136.35;59.05;;;3.90;99.90;;;;;;5035816;28;39821;-76
2022/01/26 03:21:03;;;;;;;132.00;57.50;;;3.90;99.90;;;;;;5029068;28;38851;-75
2022/01/26 03:29:12;;;;;;;133.70;56.70;;;3.90;99.90;;;;;;5030994;28;39236;-75
2022/01/26 03:34:19;;;;;;;130.77;57.03;;;4.00;99.90;;;;;;5034279;28;38890;-75
2022/01/26 03:36:53;;;;;;;135.70;57.70;;;4.00;99.90;;;;;;5050051;28;39033;-75
2022/01/26 03:39:22;;;;;;;137.20;58.57;;;4.00;99.90;;;;;;5054511;27;36920;-75
2022/01/26 03:42:05;;;;;;;144.30;59.27;;;4.00;99.90;;;;;;5054249;27;38815;-74
2022/01/26 03:44:32;;;;;;;133.43;58.40;;;4.00;99.90;;;;;;5054119;27;48680;-76
2022/01/26 03:46:58;;;;;;;134.67;58.33;;;4.10;99.90;;;;;;5056546;28;38197;-75
2022/01/26 03:49:24;;;;;;;140.63;59.03;;;4.10;99.90;;;;;;5058897;28;38630;-75
2022/01/26 03:51:51;;;;;;;130.57;57.17;;;4.10;99.90;;;;;;5054518;28;36934;-76
2022/01/26 03:54:18;;;;;;;138.70;57.50;;;4.00;99.90;;;;;;5049397;27;38256;-75
2022/01/26 03:56:45;;;;;;;134.57;58.63;;;4.00;99.90;;;;;;5054357;28;37868;-75
2022/01/26 03:59:11;;;;;;;129.77;58.10;;;4.10;99.90;;;;;;5053299;28;38089;-75
2022/01/26 04:01:38;;;;;;;133.80;59.53;;;4.10;99.90;;;;;;5056962;28;37817;-76
2022/01/26 04:04:05;;;;;;;123.13;57.00;;;4.10;99.90;;;;;;5052272;28;37553;-75
2022/01/26 04:06:33;;;;;;;138.77;60.90;;;4.20;99.90;;;;;;5057344;27;38868;-77
2022/01/26 04:09:00;;;;;;;130.07;57.03;;;4.20;99.90;;;;;;5055873;28;36278;-75
2022/01/26 04:11:41;;;;;;;131.63;57.80;;;4.20;99.90;;;;;;5058078;28;37114;-76
2022/01/26 04:14:11;;;;;;;137.43;56.93;;;4.20;99.90;;;;;;5055265;28;34487;-75
2022/01/26 04:16:39;;;;;;;133.57;58.23;;;4.30;99.90;;;;;;5055793;27;38949;-75
2022/01/26 04:19:06;;;;;;;127.90;57.50;;;4.30;99.90;;;;;;5059880;28;39618;-75
2022/01/26 04:24:32;;;;;;;128.57;56.37;;;4.30;99.90;;;;;;5060627;28;38815;-75
2022/01/26 04:27:14;;;;;;;140.17;59.30;;;4.30;99.90;;;;;;5054841;28;39016;-75
2022/01/26 04:29:41;;;;;;;129.23;57.78;;;4.30;99.90;;;;;;5056568;28;45553;-77
2022/01/26 04:32:08;;;;;;;130.73;56.90;;;4.30;99.90;;;;;;5059537;28;38410;-78
2022/01/26 04:34:35;;;;;;;137.47;57.83;;;4.40;99.90;;;;;;5056594;28;37432;-77
2022/01/26 04:38:06;;;;;;;133.47;57.63;;;4.40;99.90;;;;;;5056930;27;38937;-75
2022/01/26 04:40:08;;;;;;;126.00;54.33;;;4.50;99.90;;;;;;5044152;28;39415;-75
2022/01/26 04:42:45;;;;;;;117.63;55.50;;;4.50;99.90;;;;;;5054520;28;48671;-75
2022/01/26 04:45:12;;;;;;;116.50;54.30;;;4.50;99.90;;;;;;5051548;27;37573;-75
2022/01/26 04:47:38;;;;;;;121.30;54.57;;;4.50;99.90;;;;;;5057865;28;38590;-75
2022/01/26 04:50:07;;;;;;;120.50;54.43;;;4.50;99.90;;;;;;5058580;27;39326;-75
2022/01/26 04:52:34;;;;;;;123.67;55.23;;;4.50;99.90;;;;;;5059377;28;38962;-75
2022/01/26 04:55:00;;;;;;;117.47;53.10;;;4.50;99.90;;;;;;5057365;28;36423;-75
2022/01/26 04:57:26;;;;;;;110.00;52.97;;;4.50;99.90;;;;;;5054587;28;38619;-75
2022/01/26 04:59:53;;;;;;;105.30;51.83;;;4.50;99.90;;;;;;5059362;28;37701;-76
2022/01/26 05:02:19;;;;;;;110.63;48.80;;;4.50;99.90;;;;;;5055457;27;37946;-76
2022/01/26 05:04:45;;;;;;;88.23;44.33;;;4.50;99.90;;;;;;5058065;28;36928;-75
2022/01/26 05:07:11;;;;;;;90.43;44.93;;;4.60;99.90;;;;;;5057673;27;38610;-75
2022/01/26 05:09:38;;;;;;;85.63;44.30;;;4.60;99.90;;;;;;5054888;28;36324;-75
2022/01/26 05:12:05;;;;;;;83.63;45.40;;;4.60;99.90;;;;;;5053915;27;38920;-76
2022/01/26 05:14:31;;;;;;;75.87;39.40;;;4.70;99.90;;;;;;5059924;28;37002;-76
2022/01/26 05:16:57;;;;;;;77.37;40.47;;;4.60;99.90;;;;;;5055480;28;37917;-76
2022/01/26 05:19:23;;;;;;;71.27;39.07;;;4.60;99.90;;;;;;5055760;28;39788;-76
2022/01/26 05:21:50;;;;;;;78.13;39.57;;;4.60;99.90;;;;;;5057184;28;38473;-76
2022/01/26 05:24:16;;;;;;;76.93;40.90;;;4.60;99.90;;;;;;5053927;28;39116;-76
2022/01/26 05:26:42;;;;;;;74.10;39.17;;;4.60;99.90;;;;;;5050305;27;39631;-76
2022/01/26 05:29:08;;;;;;;72.80;39.77;;;4.60;99.90;;;;;;5052965;28;37169;-76
2022/01/26 05:31:34;;;;;;;70.83;38.47;;;4.60;99.90;;;;;;5056528;28;37950;-76
2022/01/26 05:34:00;;;;;;;70.43;38.67;;;4.60;99.90;;;;;;5053226;28;37787;-76
2022/01/26 05:36:26;;;;;;;79.90;39.47;;;4.50;99.90;;;;;;5042259;28;40223;-76
2022/01/26 05:38:53;;;;;;;72.20;39.07;;;4.50;99.90;;;;;;5033764;28;38506;-76
2022/01/26 05:41:19;;;;;;;76.93;41.83;;;4.50;99.90;;;;;;5032786;28;38255;-76
2022/01/26 05:43:45;;;;;;;76.57;38.23;;;4.50;99.90;;;;;;5041542;28;38887;-76
2022/01/26 05:46:17;;;;;;;74.33;39.37;;;4.50;99.90;;;;;;5035874;28;38133;-75
2022/01/26 05:48:45;;;;;;;81.57;40.17;;;4.40;99.90;;;;;;5038705;28;39351;-75
2022/01/26 05:51:12;;;;;;;73.33;38.53;;;4.50;99.90;;;;;;5031256;28;38791;-76
2022/01/26 05:53:40;;;;;;;68.80;38.43;;;4.40;99.90;;;;;;5038434;28;36635;-76
2022/01/26 05:56:07;;;;;;;74.83;38.90;;;4.40;99.90;;;;;;5034856;28;38932;-76
2022/01/26 05:58:33;;;;;;;76.93;38.40;;;4.40;99.90;;;;;;5035015;28;37683;-76
2022/01/26 06:01:01;;;;;;;76.30;38.53;;;4.50;99.90;;;;;;5031499;28;36798;-76
2022/01/26 06:03:29;;;;;;;70.63;39.37;;;4.40;99.90;;;;;;5032197;28;47499;-76
2022/01/26 06:05:55;;;;;;;71.87;38.27;;;4.40;99.90;;;;;;5031109;28;37734;-76
2022/01/26 06:08:22;;;;;;;75.30;41.03;;;4.50;99.90;;;;;;5044373;28;38597;-76
2022/01/26 06:10:51;;;;;;;78.97;40.30;;;4.50;99.90;;;;;;5041311;27;38320;-76
2022/01/26 06:13:18;;;;;;;76.90;41.40;;;4.40;99.90;;;;;;5045996;28;38379;-76
2022/01/26 06:15:44;;;;;;;75.00;40.17;;;4.40;99.90;;;;;;5037998;28;38573;-75
2022/01/26 06:18:11;;;;;;;70.27;39.07;;;4.30;99.90;;;;;;5043981;28;38930;-75
2022/01/26 06:20:38;;;;;;;73.80;39.40;;;4.30;99.90;;;;;;5030683;28;38801;-76
2022/01/26 06:23:04;;;;;;;72.33;38.80;;;4.40;99.90;;;;;;5043986;28;36882;-76
2022/01/26 06:25:31;;;;;;;72.03;38.67;;;4.40;99.90;;;;;;5033835;28;40682;-75
2022/01/26 06:27:59;;;;;;;72.80;38.87;;;4.40;99.90;;;;;;5031058;28;38281;-74
2022/01/26 06:30:26;;;;;;;73.10;37.30;;;4.30;99.90;;;;;;5030506;28;39738;-74
2022/01/26 06:32:52;;;;;;;66.37;35.50;;;4.40;99.90;;;;;;5029602;28;38278;-75
2022/01/26 06:35:19;;;;;;;69.33;36.20;;;4.30;99.90;;;;;;5029491;28;39580;-75
2022/01/26 06:37:45;;;;;;;70.17;35.90;;;4.30;99.90;;;;;;5076985;28;37009;-75
2022/01/26 06:40:12;;;;;;;67.23;36.80;;;4.40;99.90;;;;;;5054197;28;40071;-75
2022/01/26 06:42:51;;;;;;;71.93;38.17;;;4.40;99.90;;;;;;5070796;28;37378;-75
2022/01/26 06:45:21;;;;;;;74.43;38.77;;;4.40;99.90;;;;;;5077995;28;40904;-75
2022/01/26 06:50:18;;;;;;;74.17;38.37;;;4.40;99.90;;;;;;5075305;28;39249;-76
2022/01/26 06:52:46;;;;;;;69.67;36.40;;;4.40;99.90;;;;;;5078272;27;37159;-75
2022/01/26 06:55:13;;;;;;;74.33;37.23;;;4.40;99.90;;;;;;5072985;28;37889;-75
2022/01/26 06:57:40;;;;;;;72.93;37.30;;;4.30;99.90;;;;;;5075058;28;39130;-75
2022/01/26 07:00:09;;;;;;;71.80;35.63;;;4.40;99.90;;;;;;5059084;28;37148;-74
2022/01/26 07:02:37;;;;;;;67.27;36.73;;;4.30;99.90;;;;;;5057724;28;48317;-75
2022/01/26 07:05:04;;;;;;;69.63;35.37;;;4.40;99.90;;;;;;5053119;28;39773;-75
2022/01/26 07:07:30;;;;;;;66.37;36.33;;;4.40;99.90;;;;;;5075208;27;48635;-75
2022/01/26 07:09:56;;;;;;;69.43;35.17;;;4.40;99.90;;;;;;5078640;28;38682;-75
2022/01/26 07:12:22;;;;;;;70.10;36.80;;;4.30;99.90;;;;;;5078780;28;38004;-75
2022/01/26 07:23:15;;;;;;;66.93;34.63;;;4.30;99.90;;;;;;5047361;28;36672;-75
2022/01/26 07:25:41;;;;;;;71.13;37.13;;;4.30;99.90;;;;;;5080170;27;39444;-75
2022/01/26 07:28:07;;;;;;;64.37;36.67;;;4.30;99.90;;;;;;5080411;28;38400;-75
2022/01/26 07:30:35;;;;;;;69.53;37.17;;;4.30;99.90;;;;;;5081528;28;39015;-76
2022/01/26 07:33:02;;;;;;;71.30;37.20;;;4.30;99.90;;;;;;5073892;28;37690;-77
2022/01/26 07:35:28;;;;;;;71.93;37.83;;;4.40;99.90;;;;;;5059332;28;47292;-76
2022/01/26 07:37:58;;;;;;;68.93;36.43;;;4.40;99.90;;;;;;5063258;28;38580;-79
2022/01/26 07:40:25;;;;;;;68.80;36.83;;;4.40;99.90;;;;;;5078208;28;38417;-77
2022/01/26 07:42:51;;;;;;;69.27;36.37;;;4.40;99.90;;;;;;5079470;28;38134;-77
2022/01/26 07:45:18;;;;;;;65.00;35.53;;;4.40;99.90;;;;;;5062467;28;39414;-77
2022/01/26 07:47:45;;;;;;;69.37;35.53;;;4.40;99.90;;;;;;5079195;28;37088;-77
2022/01/26 07:50:14;;;;;;;64.90;34.63;;;4.50;99.90;;;;;;5081966;27;38943;-77
2022/01/26 07:52:42;;;;;;;75.53;36.50;;;4.50;99.90;;;;;;5077790;28;38204;-77
2022/01/26 07:55:11;;;;;;;68.33;35.53;;;4.50;99.90;;;;;;5057710;27;39759;-77
2022/01/26 07:57:37;;;;;;;68.30;36.33;;;4.50;99.90;;;;;;5082588;28;38268;-77
2022/01/26 08:00:05;;;;;;;69.33;35.47;;;4.50;99.90;;;;;;5080527;28;38237;-77
2022/01/26 08:02:31;;;;;;;62.43;33.97;;;4.50;99.90;;;;;;5060931;28;38614;-77
2022/01/26 08:04:58;;;;;;;66.87;35.20;;;4.50;99.90;;;;;;5081250;28;38585;-77
2022/01/26 08:07:24;;;;;;;65.57;34.43;;;4.50;99.90;;;;;;5062785;28;39915;-77
2022/01/26 08:09:50;;;;;;;65.50;34.57;;;4.50;99.90;;;;;;5070661;28;39300;-77
2022/01/26 08:12:16;;;;;;;70.43;34.67;;;4.50;99.90;;;;;;5057832;28;36362;-77
2022/01/26 08:14:44;;;;;;;72.80;34.63;;;4.60;99.90;;;;;;5062062;28;39019;-77
2022/01/26 08:17:14;;;;;;;63.50;31.87;;;4.50;99.90;;;;;;5060090;28;38585;-77
2022/01/26 08:19:42;;;;;;;60.30;31.73;;;4.60;99.90;;;;;;5081774;28;37836;-76
2022/01/26 08:22:08;;;;;;;68.33;32.17;;;4.60;99.90;;;;;;5082273;27;37368;-77
2022/01/26 08:24:35;;;;;;;61.17;29.60;;;4.70;99.90;;;;;;5081873;28;39936;-76
2022/01/26 08:27:09;;;;;;;64.87;30.60;;;4.70;99.90;;;;;;5063039;28;39732;-77
2022/01/26 08:29:45;;;;;;;54.77;27.77;;;4.70;99.90;;;;;;5066095;28;47301;-77
2022/01/26 08:32:11;;;;;;;67.30;28.67;;;4.70;99.90;;;;;;5081162;28;37324;-76
2022/01/26 08:34:38;;;;;;;52.70;28.07;;;4.70;99.90;;;;;;5065612;28;38612;-76
2022/01/26 08:37:04;;;;;;;57.00;27.10;;;4.80;99.90;;;;;;5082275;28;39340;-77
2022/01/26 08:39:32;;;;;;;56.40;26.30;;;4.70;99.90;;;;;;5062873;28;38776;-76
2022/01/26 08:42:00;;;;;;;57.33;27.13;;;4.80;99.90;;;;;;5066320;28;38039;-77
2022/01/26 08:44:27;;;;;;;55.03;26.40;;;4.80;99.90;;;;;;5068046;28;40628;-78
2022/01/26 08:46:54;;;;;;;73.97;30.67;;;4.80;99.90;;;;;;5085878;27;38537;-76
2022/01/26 08:49:21;;;;;;;54.93;25.43;;;4.80;99.90;;;;;;5066073;28;37820;-76
2022/01/26 08:51:49;;;;;;;55.77;27.33;;;4.80;99.90;;;;;;5067865;28;38592;-76
2022/01/26 08:54:16;;;;;;;53.90;29.40;;;4.80;99.90;;;;;;5066181;28;40278;-76
2022/01/26 08:56:42;;;;;;;56.07;27.73;;;4.80;99.90;;;;;;5085249;28;38297;-76
2022/01/26 08:59:08;;;;;;;55.30;28.13;;;4.80;99.90;;;;;;5084924;28;38080;-76
2022/01/26 09:01:34;;;;;;;59.13;28.63;;;4.90;99.90;;;;;;5062507;28;37647;-77
2022/01/26 09:04:00;;;;;;;64.93;30.27;;;4.90;99.90;;;;;;5086369;28;38847;-77
2022/01/26 09:06:26;;;;;;;63.87;29.13;;;4.90;99.90;;;;;;5067267;28;39194;-77
2022/01/26 09:09:00;;;;;;;58.80;27.27;;;5.00;99.90;;;;;;5066159;28;38571;-77
2022/01/26 09:11:27;;;;;;;59.33;27.80;;;5.00;99.90;;;;;;5065494;28;39202;-77
2022/01/26 09:13:57;;;;;;;55.30;30.10;;;5.10;99.90;;;;;;5066429;28;39399;-78
2022/01/26 09:16:25;;;;;;;60.10;29.23;;;5.10;99.90;;;;;;5082127;27;38748;-78
2022/01/26 09:18:59;;;;;;;56.87;27.07;;;5.20;99.90;;;;;;5063464;28;38848;-78
2022/01/26 09:21:26;;;;;;;54.23;27.33;;;5.20;99.90;;;;;;5065482;28;37430;-78
2022/01/26 09:23:52;;;;;;;59.93;28.23;;;5.20;99.90;;;;;;5083039;28;38486;-77
2022/01/26 09:26:18;;;;;;;58.37;27.83;;;5.30;99.90;;;;;;5067818;27;39188;-79
2022/01/26 09:28:44;;;;;;;52.03;26.27;;;5.30;99.90;;;;;;5064899;28;39100;-79
2022/01/26 09:31:11;;;;;;;53.33;28.33;;;5.30;99.90;;;;;;5064327;27;37165;-78
2022/01/26 09:33:37;;;;;;;55.77;27.93;;;5.30;99.90;;;;;;5064159;28;39037;-79
2022/01/26 09:36:04;;;;;;;53.23;28.20;;;5.40;99.90;;;;;;5059086;28;38340;-79
2022/01/26 09:38:30;;;;;;;53.37;28.20;;;5.40;99.90;;;;;;5065059;28;39511;-79
2022/01/26 09:40:56;;;;;;;55.43;28.40;;;5.40;99.90;;;;;;5060718;28;37715;-78
2022/01/26 09:43:23;;;;;;;51.20;27.83;;;5.40;99.90;;;;;;5079826;28;38342;-79
2022/01/26 09:45:49;;;;;;;56.43;28.87;;;5.40;99.90;;;;;;5061421;28;38536;-78
2022/01/26 09:48:17;;;;;;;55.23;28.37;;;5.40;99.90;;;;;;5063276;28;38843;-78
2022/01/26 09:50:44;;;;;;;57.10;29.37;;;5.50;99.90;;;;;;5081135;28;37849;-82
2022/01/26 09:53:16;;;;;;;57.47;30.23;;;5.50;99.90;;;;;;5061648;28;38690;-78
2022/01/26 09:55:44;;;;;;;53.47;28.65;;;5.60;99.90;;;;;;5079477;28;38653;-79
2022/01/26 09:58:10;;;;;;;51.40;27.07;;;5.60;99.90;;;;;;5066514;28;36882;-79
2022/01/26 10:00:36;;;;;;;49.93;27.70;;;5.60;99.90;;;;;;5065676;28;38955;-79
2022/01/26 10:03:05;;;;;;;56.03;28.80;;;5.70;99.90;;;;;;5082305;27;39043;-79
2022/01/26 10:05:41;;;;;;;54.43;28.27;;;5.70;99.90;;;;;;5078548;27;38524;-79
2022/01/26 10:08:50;;;;;;;51.30;28.23;;;5.70;99.90;;;;;;5081943;27;38371;-79
2022/01/26 10:19:09;;;;;;;44.03;24.53;;;5.90;99.90;;;;;;5079832;28;38194;-79
2022/01/26 10:21:48;;;;;;;39.17;23.70;;;5.90;99.90;;;;;;5079909;27;39911;-78
2022/01/26 10:24:15;;;;;;;42.17;24.93;;;6.00;99.90;;;;;;5084484;27;38741;-78
2022/01/26 10:26:47;;;;;;;37.90;21.77;;;6.10;99.90;;;;;;5060316;28;39882;-79
2022/01/26 10:29:15;;;;;;;39.53;20.80;;;6.10;99.90;;;;;;5067751;28;38984;-79
2022/01/26 10:31:42;;;;;;;31.63;19.20;;;6.10;99.90;;;;;;5062538;28;42707;-78
2022/01/26 10:34:16;;;;;;;32.17;21.53;;;6.30;99.90;;;;;;5079122;28;38545;-79
2022/01/26 10:36:58;;;;;;;31.40;19.53;;;6.20;99.90;;;;;;5074666;27;38435;-78
2022/01/26 10:39:32;;;;;;;30.67;19.87;;;6.30;99.90;;;;;;5063296;28;38890;-79
2022/01/26 10:42:03;;;;;;;31.87;18.93;;;6.40;99.90;;;;;;5063968;28;36688;-78
2022/01/26 10:44:46;;;;;;;33.10;19.43;;;6.40;99.90;;;;;;5083901;27;48842;-79
2022/01/26 10:47:12;;;;;;;33.63;19.73;;;6.40;99.90;;;;;;5062415;28;37046;-79
2022/01/26 10:52:34;;;;;;;31.50;18.50;;;6.40;99.90;;;;;;5083692;27;37739;-79
2022/01/26 10:55:00;;;;;;;28.70;18.00;;;6.40;99.90;;;;;;5083163;27;40034;-78
2022/01/26 10:57:28;;;;;;;28.23;18.40;;;6.40;99.90;;;;;;5063839;28;38465;-79
2022/01/26 10:59:54;;;;;;;29.30;18.30;;;6.50;99.90;;;;;;5079002;28;37283;-79
2022/01/26 11:02:25;;;;;;;29.97;18.47;;;6.50;99.90;;;;;;5078401;28;38326;-79
2022/01/26 11:04:52;;;;;;;30.73;19.27;;;6.50;99.90;;;;;;5076832;28;39707;-79
2022/01/26 11:07:18;;;;;;;28.93;19.03;;;6.60;99.90;;;;;;5057858;28;39350;-79
2022/01/26 11:09:47;;;;;;;30.17;19.43;;;6.60;99.90;;;;;;5062207;28;35856;-80
2022/01/26 11:12:16;;;;;;;30.57;19.53;;;6.70;99.90;;;;;;5079110;27;37192;-79
2022/01/26 11:14:48;;;;;;;29.70;18.03;;;6.70;99.90;;;;;;5061467;28;38669;-77
2022/01/26 11:17:29;;;;;;;31.05;19.17;;;6.70;99.90;;;;;;5062468;28;37298;-78
2022/01/26 11:19:57;;;;;;;29.07;17.50;;;6.70;99.90;;;;;;5075462;28;36905;-78
2022/01/26 11:22:29;;;;;;;31.53;18.73;;;6.80;99.90;;;;;;5069615;28;36236;-80
2022/01/26 11:25:08;;;;;;;30.00;17.50;;;6.80;99.90;;;;;;5084765;28;38156;-77
2022/01/26 11:27:36;;;;;;;29.53;17.07;;;6.90;99.90;;;;;;5084112;28;47285;-78
2022/01/26 11:30:33;;;;;;;29.87;18.00;;;6.90;99.90;;;;;;5070566;28;38649;-78
2022/01/26 11:33:02;;;;;;;32.43;17.90;;;6.90;99.90;;;;;;5064636;28;47551;-78
2022/01/26 11:35:35;;;;;;;28.23;17.77;;;7.00;99.90;;;;;;5084149;27;49070;-78
2022/01/26 11:47:03;;;;;;;31.13;17.33;;;7.00;99.90;;;;;;5086774;27;40348;-79
2022/01/26 11:49:50;;;;;;;32.57;19.30;;;7.00;99.90;;;;;;5089233;28;50042;-79
2022/01/26 11:52:29;;;;;;;34.93;19.93;;;7.10;99.90;;;;;;5084640;27;37454;-79
2022/01/26 11:54:58;;;;;;;33.70;20.00;;;7.00;99.90;;;;;;5075932;28;36754;-79
2022/01/26 11:57:39;;;;;;;25.60;18.27;;;7.00;99.90;;;;;;5086344;27;38806;-79
2022/01/26 12:00:11;;;;;;;30.27;19.03;;;7.00;99.90;;;;;;5085505;28;38002;-79
2022/01/26 12:05:14;;;;;;;32.03;18.80;;;7.00;99.90;;;;;;5086944;28;36906;-79
2022/01/26 12:07:53;;;;;;;31.60;18.40;;;7.00;99.90;;;;;;5090216;27;38862;-79
2022/01/26 12:10:28;;;;;;;28.53;18.70;;;7.00;99.90;;;;;;5084762;27;38945;-79
2022/01/26 12:13:02;;;;;;;27.57;18.90;;;7.10;99.90;;;;;;5082438;27;38188;-79
2022/01/26 12:15:33;;;;;;;28.60;19.20;;;7.10;99.90;;;;;;5061020;28;47582;-78
2022/01/26 12:18:18;;;;;;;28.63;19.13;;;7.20;99.90;;;;;;5090137;27;39033;-79
2022/01/26 12:42:52;;;;;;;28.53;17.80;;;7.10;99.90;;;;;;5086681;27;40449;-79
2022/01/26 12:45:26;;;;;;;30.77;18.43;;;7.00;99.90;;;;;;5068618;27;37127;-83
2022/01/26 12:47:54;;;;;;;26.87;17.30;;;7.10;99.90;;;;;;5084067;27;37321;-79
2022/01/26 12:50:22;;;;;;;28.53;15.83;;;7.20;99.90;;;;;;5064873;27;38319;-79
2022/01/26 12:52:51;;;;;;;27.07;17.27;;;7.20;99.90;;;;;;5068662;28;37174;-78
2022/01/26 12:55:29;;;;;;;27.97;17.00;;;7.30;99.90;;;;;;5064663;28;37209;-79
2022/01/26 12:57:56;;;;;;;26.40;16.07;;;7.40;99.90;;;;;;5068513;28;36489;-79
2022/01/26 13:00:24;;;;;;;23.57;15.90;;;7.30;99.90;;;;;;5067540;28;38708;-79
2022/01/26 13:02:52;;;;;;;25.70;17.30;;;7.40;99.90;;;;;;5088257;27;38409;-78
2022/01/26 13:05:27;;;;;;;26.30;16.77;;;7.30;99.90;;;;;;5067653;27;37180;-79
2022/01/26 13:08:01;;;;;;;27.43;17.33;;;7.30;99.90;;;;;;5087464;27;37281;-79
2022/01/26 13:10:28;;;;;;;26.83;17.27;;;7.30;99.90;;;;;;5063411;27;46980;-79
2022/01/26 13:12:55;;;;;;;28.03;17.83;;;7.50;99.90;;;;;;5085769;27;38411;-79
2022/01/26 13:15:38;;;;;;;29.00;18.13;;;7.40;99.90;;;;;;5066184;27;37493;-79
2022/01/26 13:23:50;;;;;;;26.37;17.17;;;7.40;99.90;;;;;;5086239;28;38441;-79
2022/01/26 13:26:37;;;;;;;22.20;15.30;;;7.40;99.90;;;;;;5067119;27;37238;-79
2022/01/26 13:29:21;;;;;;;28.17;18.40;;;7.40;99.90;;;;;;5069651;28;37843;-78
2022/01/26 13:43:29;;;;;;;33.53;19.58;;;7.30;99.90;;;;;;5082265;28;39439;-75
2022/01/26 13:51:02;;;;;;;27.73;16.70;;;7.30;99.90;;;;;;5076327;27;38846;-74
2022/01/26 13:53:52;;;;;;;29.73;17.57;;;7.30;99.90;;;;;;5081822;27;48681;-74
2022/01/26 13:56:35;;;;;;;28.70;18.40;;;7.20;99.90;;;;;;5081331;27;39267;-75
2022/01/26 13:59:12;;;;;;;38.17;24.57;;;7.30;99.90;;;;;;5084025;28;38030;-74
2022/01/26 14:01:43;;;;;;;51.07;27.40;;;7.10;99.90;;;;;;5062122;28;47773;-75
2022/01/26 14:04:10;;;;;;;55.13;30.40;;;6.70;99.90;;;;;;5060398;28;37894;-75
2022/01/26 14:06:36;;;;;;;56.57;30.93;;;6.50;99.90;;;;;;5066601;28;37682;-74
2022/01/26 14:09:05;;;;;;;58.30;31.63;;;6.50;99.90;;;;;;5079655;28;39010;-75
2022/01/26 14:11:31;;;;;;;61.43;33.73;;;6.30;99.90;;;;;;5049562;28;36679;-76
2022/01/26 14:13:59;;;;;;;53.63;31.30;;;6.30;99.90;;;;;;5079887;28;39846;-75
2022/01/26 14:16:28;;;;;;;54.40;31.67;;;6.30;99.90;;;;;;5076456;27;39122;-75
2022/01/26 14:21:41;;;;;;;59.60;33.77;;;6.40;99.90;;;;;;5062361;27;48053;-75
2022/01/26 14:26:49;;;;;;;63.17;33.60;;;6.40;99.90;;;;;;5078265;27;38463;-75
2022/01/26 14:29:34;;;;;;;;;;;6.30;99.90;;;;;;5080026;28;37750;-76
2022/01/26 14:35:06;;;;;;;62.30;34.67;;;6.30;99.90;;;;;;5069942;28;48817;-75
2022/01/26 15:00:06;;;;;;;59.13;35.43;;;6.30;99.90;;;;;;5073908;27;39216;-75
2022/01/26 15:42:41;;;;;;;65.97;38.57;;;5.80;99.90;;;;;;5076592;27;38904;-75
2022/01/26 15:51:04;;;;;;;64.50;39.00;;;5.70;99.90;;;;;;5070417;28;39978;-75
2022/01/26 18:13:02;;;;;;;66.35;35.72;;;5.50;99.90;;;;;;5050517;28;39280;-74
2022/01/26 18:15:39;;;;;;;60.77;34.80;;;5.50;99.90;;;;;;5076192;27;49165;-73
2022/01/26 18:26:48;;;;;;;66.03;35.87;;;5.50;99.90;;;;;;5048881;28;50483;-75
2022/01/26 18:50:27;;;;;;;69.43;36.20;;;5.40;99.90;;;;;;5051232;28;50268;-76
2022/01/26 18:52:53;;;;;;;65.50;36.70;;;5.40;99.90;;;;;;5052009;28;37845;-73
2022/01/26 18:55:19;;;;;;;69.43;37.17;;;5.40;99.90;;;;;;5049278;28;37752;-74
2022/01/26 18:57:45;;;;;;;68.67;37.83;;;5.40;99.90;;;;;;5076147;28;38633;-74
2022/01/26 19:00:14;;;;;;;62.50;35.10;;;5.40;99.90;;;;;;5073806;28;38463;-74
2022/01/26 19:02:40;;;;;;;65.87;35.03;;;5.40;99.90;;;;;;5075916;27;37224;-76
2022/01/26 19:05:10;;;;;;;66.53;34.27;;;5.40;99.90;;;;;;5071769;27;40521;-76
2022/01/26 19:07:39;;;;;;;63.43;35.53;;;5.50;99.90;;;;;;5060686;28;37421;-76
2022/01/26 19:10:07;;;;;;;67.07;35.80;;;5.50;99.90;;;;;;5070020;27;38137;-76
2022/01/26 19:12:37;;;;;;;60.43;34.30;;;5.50;99.90;;;;;;5055921;28;39641;-79
2022/01/26 19:15:08;;;;;;;60.73;34.77;;;5.50;99.90;;;;;;5072878;28;39807;-78
2022/01/26 19:17:45;;;;;;;60.40;34.70;;;5.50;99.90;;;;;;5052892;28;46978;-77
2022/01/26 19:20:26;;;;;;;63.27;34.73;;;5.60;99.90;;;;;;5065701;28;38051;-77
2022/01/26 19:27:59;;;;;;;56.77;30.43;;;5.60;99.90;;;;;;5068771;28;39292;-76
2022/01/26 19:40:06;;;;;;;49.30;28.67;;;5.70;99.90;;;;;;5061380;27;37848;-76